createdAt,value
2023-02-08T00:00:12.582Z,63.62
2023-02-08T00:01:16.207Z,64.06
2023-02-08T00:02:18.301Z,63.59
2023-02-08T00:03:20.252Z,63.84
2023-02-08T00:04:22.265Z,63.65
2023-02-08T00:05:24.209Z,64.02
2023-02-08T00:06:26.076Z,64.26
2023-02-08T00:07:27.996Z,63.74
2023-02-08T00:08:29.834Z,63.33
2023-02-08T00:09:31.832Z,63.19
2023-02-08T00:10:33.808Z,63.43
2023-02-08T00:11:35.771Z,63.89
2023-02-08T00:12:38.412Z,63.47
2023-02-08T00:13:42.123Z,63.79
2023-02-08T00:14:44.341Z,63.20
2023-02-08T00:15:46.697Z,63.91
2023-02-08T00:16:48.956Z,63.86
2023-02-08T00:17:50.833Z,63.46
2023-02-08T00:18:52.762Z,63.33
2023-02-08T00:19:54.715Z,63.42
2023-02-08T00:20:57.511Z,63.46
2023-02-08T00:21:59.373Z,63.22
2023-02-08T00:23:01.254Z,63.42
2023-02-08T00:24:03.123Z,63.46
2023-02-08T00:25:08.601Z,63.31
2023-02-08T00:26:11.093Z,63.67
2023-02-08T00:27:12.898Z,63.29
2023-02-08T00:28:15.742Z,63.31
2023-02-08T00:29:17.637Z,63.62
2023-02-08T00:30:19.573Z,63.09
2023-02-08T00:31:21.571Z,63.00
2023-02-08T00:32:23.920Z,63.28
2023-02-08T00:33:25.776Z,63.72
2023-02-08T00:34:27.598Z,63.93
2023-02-08T00:35:29.894Z,63.65
2023-02-08T00:36:31.703Z,63.98
2023-02-08T00:37:33.598Z,63.82
2023-02-08T00:38:35.727Z,63.49
2023-02-08T00:39:37.548Z,63.45
2023-02-08T00:40:39.788Z,63.31
2023-02-08T00:41:41.800Z,63.27
2023-02-08T00:42:43.598Z,63.34
2023-02-08T00:43:45.421Z,63.46
2023-02-08T00:44:47.285Z,63.48
2023-02-08T00:45:53.904Z,63.82
2023-02-08T00:46:55.979Z,64.05
2023-02-08T00:47:57.942Z,64.25
2023-02-08T00:48:59.708Z,64.08
2023-02-08T00:50:01.573Z,64.26
2023-02-08T00:51:11.050Z,64.23
2023-02-08T00:52:12.863Z,64.50
2023-02-08T00:53:14.692Z,64.37
2023-02-08T00:54:17.368Z,64.35
2023-02-08T00:55:19.291Z,64.17
2023-02-08T00:56:21.211Z,64.49
2023-02-08T00:57:23.099Z,64.25
2023-02-08T00:58:25.143Z,64.33
2023-02-08T00:59:28.025Z,64.20
2023-02-08T01:00:29.924Z,64.15
2023-02-08T01:01:31.910Z,64.08
2023-02-08T01:02:33.775Z,64.39
2023-02-08T01:03:37.038Z,64.30
2023-02-08T01:04:39.259Z,63.95
2023-02-08T01:05:41.031Z,64.15
2023-02-08T01:06:42.961Z,64.06
2023-02-08T01:07:44.891Z,63.96
2023-02-08T01:08:47.007Z,63.38
2023-02-08T01:09:48.932Z,63.35
2023-02-08T01:10:50.869Z,63.67
2023-02-08T01:11:52.749Z,63.57
2023-02-08T01:12:55.755Z,63.28
2023-02-08T01:13:58.309Z,63.33
2023-02-08T01:15:00.170Z,63.42
2023-02-08T01:16:11.555Z,63.45
2023-02-08T01:17:13.523Z,63.68
2023-02-08T01:18:15.395Z,63.57
2023-02-08T01:19:17.475Z,64.06
2023-02-08T01:20:19.389Z,63.77
2023-02-08T01:21:22.512Z,64.05
2023-02-08T01:22:24.432Z,64.30
2023-02-08T01:23:26.393Z,64.29
2023-02-08T01:24:28.218Z,63.81
2023-02-08T01:25:30.133Z,63.83
2023-02-08T01:26:32.691Z,63.91
2023-02-08T01:27:34.582Z,64.61
2023-02-08T01:28:37.323Z,64.48
2023-02-08T01:29:39.202Z,64.69
2023-02-08T01:30:41.323Z,64.70
2023-02-08T01:31:43.925Z,64.53
2023-02-08T01:32:45.933Z,64.68
2023-02-08T01:33:47.788Z,64.77
2023-02-08T01:34:49.656Z,64.81
2023-02-08T01:35:52.962Z,64.78
2023-02-08T01:36:54.857Z,64.74
2023-02-08T01:37:56.688Z,64.38
2023-02-08T01:38:58.605Z,64.10
2023-02-08T01:40:00.423Z,63.95
2023-02-08T01:41:02.934Z,63.88
2023-02-08T01:42:05.054Z,63.98
2023-02-08T01:43:16.812Z,63.57
2023-02-08T01:44:18.571Z,64.00
2023-02-08T01:45:29.121Z,63.72
2023-02-08T01:46:31.673Z,64.00
2023-02-08T01:47:33.727Z,63.55
2023-02-08T01:48:38.059Z,63.87
2023-02-08T01:49:40.351Z,63.98
2023-02-08T01:50:46.750Z,64.24
2023-02-08T01:51:50.600Z,64.41
2023-02-08T01:52:52.489Z,63.90
2023-02-08T01:53:55.855Z,64.10
2023-02-08T01:55:03.481Z,64.16
2023-02-08T01:56:07.440Z,64.91
2023-02-08T01:57:09.696Z,64.79
2023-02-08T01:58:12.701Z,64.81
2023-02-08T01:59:21.928Z,64.66
2023-02-08T02:00:24.611Z,64.80
2023-02-08T02:01:28.023Z,64.83
2023-02-08T02:02:30.294Z,64.98
2023-02-08T02:03:32.429Z,64.85
2023-02-08T02:04:34.303Z,64.70
2023-02-08T02:05:39.749Z,65.02
2023-02-08T02:06:44.303Z,65.03
2023-02-08T02:07:46.541Z,65.10
2023-02-08T02:08:56.680Z,64.64
2023-02-08T02:10:02.263Z,64.85
2023-02-08T02:11:04.201Z,64.53
2023-02-08T02:12:07.779Z,64.66
2023-02-08T02:13:18.634Z,64.91
2023-02-08T02:14:23.827Z,64.67
2023-02-08T02:15:25.790Z,64.92
2023-02-08T02:16:27.710Z,64.77
2023-02-08T02:17:29.660Z,64.31
2023-02-08T02:18:32.624Z,64.36
2023-02-08T02:19:40.739Z,64.68
2023-02-08T02:21:02.886Z,64.52
2023-02-08T02:22:11.899Z,64.48
2023-02-08T02:23:29.382Z,64.67
2023-02-08T02:24:40.170Z,64.52
2023-02-08T02:25:53.454Z,65.16
2023-02-08T02:27:14.502Z,64.81
2023-02-08T02:28:19.110Z,64.87
2023-02-08T02:29:39.602Z,65.45
2023-02-08T02:30:47.162Z,65.47
2023-02-08T02:31:57.898Z,65.71
2023-02-08T02:33:11.907Z,66.42
2023-02-08T02:34:20.702Z,66.20
2023-02-08T02:35:29.015Z,66.07
2023-02-08T02:36:33.972Z,66.13
2023-02-08T02:37:49.853Z,65.86
2023-02-08T02:39:05.834Z,66.16
2023-02-08T02:40:15.899Z,66.32
2023-02-08T02:41:44.227Z,66.46
2023-02-08T02:43:07.527Z,66.36
2023-02-08T02:44:22.295Z,66.28
2023-02-08T02:45:24.023Z,66.03
2023-02-08T02:46:41.308Z,66.32
2023-02-08T02:47:52.387Z,66.53
2023-02-08T02:49:04.573Z,66.60
2023-02-08T02:50:12.216Z,66.54
2023-02-08T02:51:17.041Z,66.40
2023-02-08T02:52:28.593Z,66.60
2023-02-08T02:53:42.416Z,66.39
2023-02-08T02:54:51.077Z,66.17
2023-02-08T02:55:58.657Z,66.08
2023-02-08T02:57:03.030Z,66.16
2023-02-08T02:58:06.322Z,65.95
2023-02-08T02:59:09.833Z,65.73
2023-02-08T03:00:12.579Z,65.83
2023-02-08T03:01:21.375Z,65.49
2023-02-08T03:02:23.377Z,65.71
2023-02-08T03:03:26.765Z,65.56
2023-02-08T03:04:34.835Z,65.57
2023-02-08T03:05:36.730Z,65.68
2023-02-08T03:06:38.512Z,65.75
2023-02-08T03:08:00.594Z,65.72
2023-02-08T03:09:09.369Z,65.77
2023-02-08T03:10:17.012Z,65.56
2023-02-08T03:11:20.736Z,65.61
2023-02-08T03:12:45.281Z,65.48
2023-02-08T03:13:53.001Z,65.39
2023-02-08T03:14:57.937Z,65.54
2023-02-08T03:16:13.903Z,65.99
2023-02-08T03:17:18.758Z,66.08
2023-02-08T03:18:32.827Z,65.81
2023-02-08T03:19:34.710Z,65.67
2023-02-08T03:20:41.906Z,65.68
2023-02-08T03:21:47.233Z,65.34
2023-02-08T03:23:05.417Z,65.56
2023-02-08T03:24:33.609Z,65.57
2023-02-08T03:25:41.211Z,65.49
2023-02-08T03:26:49.108Z,65.54
2023-02-08T03:28:04.644Z,65.48
2023-02-08T03:29:12.047Z,65.75
2023-02-08T03:30:20.475Z,65.64
2023-02-08T03:31:22.448Z,65.79
2023-02-08T03:32:27.155Z,65.71
2023-02-08T03:33:36.609Z,65.53
2023-02-08T03:35:04.969Z,65.59
2023-02-08T03:36:12.912Z,66.05
2023-02-08T03:37:21.942Z,66.16
2023-02-08T03:38:29.987Z,65.85
2023-02-08T03:39:33.429Z,65.70
2023-02-08T03:40:40.468Z,65.97
2023-02-08T03:41:44.547Z,66.05
2023-02-08T03:42:47.708Z,66.04
2023-02-08T03:43:56.894Z,66.42
2023-02-08T03:45:03.408Z,66.71
2023-02-08T03:46:05.277Z,66.86
2023-02-08T03:47:10.395Z,66.92
2023-02-08T03:48:14.473Z,66.71
2023-02-08T03:49:19.963Z,66.55
2023-02-08T03:50:23.321Z,66.72
2023-02-08T03:51:26.889Z,66.67
2023-02-08T03:52:30.598Z,66.59
2023-02-08T03:53:38.755Z,66.12
2023-02-08T03:54:44.248Z,66.36
2023-02-08T03:55:47.431Z,66.49
2023-02-08T03:56:55.100Z,66.75
2023-02-08T03:58:00.112Z,66.54
2023-02-08T03:59:03.936Z,66.65
2023-02-08T04:00:12.305Z,66.87
2023-02-08T04:01:32.726Z,66.42
2023-02-08T04:02:36.610Z,66.21
2023-02-08T04:03:39.047Z,66.25
2023-02-08T04:04:46.877Z,65.96
2023-02-08T04:05:50.012Z,66.16
2023-02-08T04:06:51.885Z,66.20
2023-02-08T04:07:53.840Z,65.99
2023-02-08T04:08:56.307Z,66.25
2023-02-08T04:09:58.189Z,66.85
2023-02-08T04:11:00.124Z,66.55
2023-02-08T04:12:02.064Z,66.38
2023-02-08T04:13:04.766Z,66.42
2023-02-08T04:14:06.643Z,66.19
2023-02-08T04:15:08.936Z,65.89
2023-02-08T04:16:12.465Z,65.88
2023-02-08T04:17:14.328Z,66.10
2023-02-08T04:18:16.106Z,65.90
2023-02-08T04:19:17.989Z,65.93
2023-02-08T04:20:20.004Z,65.93
2023-02-08T04:21:22.016Z,66.07
2023-02-08T04:22:23.852Z,66.19
2023-02-08T04:23:25.740Z,66.30
2023-02-08T04:24:27.647Z,66.52
2023-02-08T04:25:29.532Z,66.19
2023-02-08T04:26:31.347Z,66.25
2023-02-08T04:27:33.217Z,66.16
2023-02-08T04:28:35.516Z,66.16
2023-02-08T04:29:37.412Z,65.94
2023-02-08T04:30:39.552Z,65.95
2023-02-08T04:31:41.828Z,65.82
2023-02-08T04:32:43.674Z,66.17
2023-02-08T04:33:45.554Z,66.10
2023-02-08T04:34:47.366Z,66.03
2023-02-08T04:35:49.291Z,65.87
2023-02-08T04:36:51.199Z,65.88
2023-02-08T04:37:53.057Z,65.82
2023-02-08T04:38:54.950Z,66.24
2023-02-08T04:39:56.766Z,66.15
2023-02-08T04:40:58.701Z,66.16
2023-02-08T04:42:02.955Z,66.17
2023-02-08T04:43:05.303Z,66.06
2023-02-08T04:44:07.150Z,66.10
2023-02-08T04:45:09.443Z,65.77
2023-02-08T04:46:11.828Z,65.52
2023-02-08T04:47:13.776Z,65.42
2023-02-08T04:48:15.676Z,65.46
2023-02-08T04:49:17.559Z,65.37
2023-02-08T04:50:19.572Z,65.19
2023-02-08T04:51:21.514Z,65.39
2023-02-08T04:52:23.305Z,65.36
2023-02-08T04:53:26.048Z,65.37
2023-02-08T04:54:27.957Z,65.84
2023-02-08T04:55:29.979Z,65.76
2023-02-08T04:56:31.937Z,65.78
2023-02-08T04:57:34.039Z,65.95
2023-02-08T04:58:36.310Z,65.92
2023-02-08T04:59:38.198Z,65.84
2023-02-08T05:00:40.313Z,66.19
2023-02-08T05:01:42.622Z,66.43
2023-02-08T05:02:44.629Z,66.40
2023-02-08T05:03:46.726Z,66.17
2023-02-08T05:04:48.612Z,66.50
2023-02-08T05:05:57.422Z,66.20
2023-02-08T05:06:59.406Z,66.58
2023-02-08T05:08:01.331Z,66.03
2023-02-08T05:09:03.553Z,66.27
2023-02-08T05:10:05.616Z,65.94
2023-02-08T05:11:07.532Z,65.78
2023-02-08T05:12:09.500Z,65.96
2023-02-08T05:13:11.399Z,66.07
2023-02-08T05:14:13.221Z,66.27
2023-02-08T05:15:15.127Z,66.05
2023-02-08T05:16:17.186Z,66.05
2023-02-08T05:17:19.116Z,66.10
2023-02-08T05:18:20.960Z,66.41
2023-02-08T05:19:22.787Z,66.24
2023-02-08T05:20:24.633Z,66.10
2023-02-08T05:21:26.507Z,66.16
2023-02-08T05:22:28.423Z,66.13
2023-02-08T05:23:30.293Z,65.73
2023-02-08T05:24:32.112Z,66.13
2023-02-08T05:25:34.007Z,66.37
2023-02-08T05:26:35.940Z,66.46
2023-02-08T05:27:37.895Z,66.31
2023-02-08T05:28:39.762Z,66.38
2023-02-08T05:29:41.633Z,66.15
2023-02-08T05:30:43.594Z,66.16
2023-02-08T05:31:45.588Z,66.22
2023-02-08T05:32:47.591Z,66.16
2023-02-08T05:33:50.195Z,66.22
2023-02-08T05:34:52.087Z,66.45
2023-02-08T05:35:53.933Z,66.26
2023-02-08T05:36:55.754Z,66.31
2023-02-08T05:37:57.685Z,66.13
2023-02-08T05:38:59.575Z,65.97
2023-02-08T05:40:01.411Z,65.96
2023-02-08T05:41:03.342Z,66.35
2023-02-08T05:42:05.226Z,66.17
2023-02-08T05:43:07.714Z,66.30
2023-02-08T05:44:09.520Z,66.15
2023-02-08T05:45:11.382Z,66.10
2023-02-08T05:46:13.323Z,66.29
2023-02-08T05:47:15.327Z,66.10
2023-02-08T05:48:17.551Z,65.90
2023-02-08T05:49:19.439Z,65.65
2023-02-08T05:50:21.464Z,65.59
2023-02-08T05:51:23.433Z,65.51
2023-02-08T05:52:25.302Z,65.94
2023-02-08T05:53:27.681Z,65.77
2023-02-08T05:54:29.627Z,65.77
2023-02-08T05:55:31.481Z,65.77
2023-02-08T05:56:33.384Z,65.55
2023-02-08T05:57:35.852Z,65.54
2023-02-08T05:58:37.801Z,65.29
2023-02-08T05:59:39.676Z,65.38
2023-02-08T06:00:41.696Z,65.60
2023-02-08T06:01:43.660Z,65.38
2023-02-08T06:02:45.650Z,65.73
2023-02-08T06:03:47.589Z,65.74
2023-02-08T06:04:49.592Z,65.67
2023-02-08T06:05:51.492Z,66.10
2023-02-08T06:06:53.365Z,66.43
2023-02-08T06:07:55.301Z,66.44
2023-02-08T06:08:57.148Z,66.47
2023-02-08T06:09:59.101Z,66.42
2023-02-08T06:11:00.998Z,66.75
2023-02-08T06:12:03.159Z,66.74
2023-02-08T06:13:05.565Z,66.90
2023-02-08T06:14:07.437Z,66.90
2023-02-08T06:15:09.581Z,66.70
2023-02-08T06:16:11.602Z,67.02
2023-02-08T06:17:13.538Z,67.20
2023-02-08T06:18:15.542Z,67.50
2023-02-08T06:19:18.386Z,67.55
2023-02-08T06:20:20.450Z,67.53
2023-02-08T06:21:24.396Z,67.77
2023-02-08T06:22:26.527Z,67.24
2023-02-08T06:23:28.310Z,67.56
2023-02-08T06:24:30.176Z,67.25
2023-02-08T06:25:32.204Z,67.44
2023-02-08T06:26:34.685Z,67.35
2023-02-08T06:27:36.567Z,67.20
2023-02-08T06:28:38.472Z,66.99
2023-02-08T06:29:40.305Z,66.85
2023-02-08T06:30:42.569Z,67.11
2023-02-08T06:31:44.721Z,67.57
2023-02-08T06:32:46.949Z,67.30
2023-02-08T06:33:48.939Z,67.59
2023-02-08T06:34:51.906Z,67.63
2023-02-08T06:35:53.901Z,67.92
2023-02-08T06:36:55.884Z,67.76
2023-02-08T06:37:59.115Z,67.37
2023-02-08T06:39:01.037Z,67.04
2023-02-08T06:40:02.945Z,67.11
2023-02-08T06:41:04.987Z,66.97
2023-02-08T06:42:06.874Z,66.97
2023-02-08T06:43:08.881Z,66.70
2023-02-08T06:44:10.762Z,66.59
2023-02-08T06:45:13.722Z,66.47
2023-02-08T06:46:15.745Z,66.28
2023-02-08T06:47:17.695Z,66.53
2023-02-08T06:48:19.796Z,67.43
2023-02-08T06:49:21.618Z,66.89
2023-02-08T06:50:24.225Z,66.94
2023-02-08T06:51:26.506Z,67.11
2023-02-08T06:52:28.314Z,66.67
2023-02-08T06:53:30.698Z,66.71
2023-02-08T06:54:32.520Z,66.50
2023-02-08T06:55:34.488Z,66.64
2023-02-08T06:56:36.529Z,66.34
2023-02-08T06:57:38.373Z,66.34
2023-02-08T06:58:40.205Z,66.75
2023-02-08T06:59:42.118Z,66.90
2023-02-08T07:00:45.761Z,66.57
2023-02-08T07:01:47.630Z,66.29
2023-02-08T07:02:49.542Z,66.73
2023-02-08T07:03:51.371Z,66.45
2023-02-08T07:04:53.395Z,66.03
2023-02-08T07:06:04.592Z,66.49
2023-02-08T07:07:07.378Z,66.50
2023-02-08T07:08:09.424Z,66.82
2023-02-08T07:09:11.233Z,66.75
2023-02-08T07:10:13.149Z,67.05
2023-02-08T07:11:16.403Z,66.58
2023-02-08T07:12:18.386Z,66.89
2023-02-08T07:13:20.255Z,66.51
2023-02-08T07:14:22.071Z,66.49
2023-02-08T07:15:24.252Z,66.37
2023-02-08T07:16:26.141Z,66.16
2023-02-08T07:17:28.084Z,65.74
2023-02-08T07:18:29.990Z,66.08
2023-02-08T07:19:31.902Z,66.12
2023-02-08T07:20:33.779Z,66.26
2023-02-08T07:21:35.701Z,66.13
2023-02-08T07:22:38.031Z,66.19
2023-02-08T07:23:39.913Z,65.76
2023-02-08T07:24:41.853Z,65.92
2023-02-08T07:25:43.717Z,65.48
2023-02-08T07:26:45.613Z,65.52
2023-02-08T07:27:47.629Z,65.65
2023-02-08T07:28:49.494Z,65.80
2023-02-08T07:29:51.306Z,65.53
2023-02-08T07:30:53.567Z,66.21
2023-02-08T07:31:55.506Z,66.06
2023-02-08T07:32:57.408Z,66.75
2023-02-08T07:33:59.386Z,66.50
2023-02-08T07:35:01.266Z,66.43
2023-02-08T07:36:05.841Z,66.53
2023-02-08T07:37:08.204Z,66.21
2023-02-08T07:38:10.444Z,66.23
2023-02-08T07:39:12.281Z,66.22
2023-02-08T07:40:14.271Z,66.26
2023-02-08T07:41:16.151Z,66.06
2023-02-08T07:42:18.014Z,66.27
2023-02-08T07:43:19.962Z,65.79
2023-02-08T07:44:21.835Z,66.06
2023-02-08T07:45:24.119Z,65.62
2023-02-08T07:46:26.070Z,65.67
2023-02-08T07:47:28.044Z,65.65
2023-02-08T07:48:30.154Z,65.64
2023-02-08T07:49:33.943Z,65.76
2023-02-08T07:50:35.801Z,65.73
2023-02-08T07:51:37.860Z,65.60
2023-02-08T07:52:39.698Z,65.64
2023-02-08T07:53:41.649Z,65.67
2023-02-08T07:54:43.453Z,65.61
2023-02-08T07:55:45.726Z,65.63
2023-02-08T07:56:47.687Z,65.50
2023-02-08T07:57:50.020Z,65.49
2023-02-08T07:58:51.949Z,65.57
2023-02-08T07:59:54.299Z,65.57
2023-02-08T08:00:56.263Z,65.58
2023-02-08T08:01:58.241Z,65.52
2023-02-08T08:03:00.685Z,65.87
2023-02-08T08:04:02.620Z,65.40
2023-02-08T08:05:04.484Z,65.50
2023-02-08T08:06:06.559Z,65.45
2023-02-08T08:07:08.553Z,65.37
2023-02-08T08:08:11.139Z,65.82
2023-02-08T08:09:13.458Z,65.66
2023-02-08T08:10:15.376Z,65.88
2023-02-08T08:11:20.163Z,65.64
2023-02-08T08:12:22.114Z,65.59
2023-02-08T08:13:24.153Z,65.55
2023-02-08T08:14:25.966Z,65.57
2023-02-08T08:15:28.069Z,66.13
2023-02-08T08:16:29.883Z,66.44
2023-02-08T08:17:31.877Z,66.24
2023-02-08T08:18:33.678Z,66.39
2023-02-08T08:19:35.574Z,66.62
2023-02-08T08:20:37.430Z,66.66
2023-02-08T08:21:39.583Z,66.87
2023-02-08T08:22:41.480Z,66.68
2023-02-08T08:23:43.475Z,66.81
2023-02-08T08:24:45.336Z,66.69
2023-02-08T08:25:47.277Z,66.07
2023-02-08T08:26:49.141Z,66.40
2023-02-08T08:27:51.036Z,66.60
2023-02-08T08:28:52.829Z,66.47
2023-02-08T08:29:54.826Z,66.56
2023-02-08T08:30:57.782Z,66.58
2023-02-08T08:31:59.774Z,66.05
2023-02-08T08:33:01.679Z,65.91
2023-02-08T08:34:03.637Z,65.71
2023-02-08T08:35:06.196Z,65.52
2023-02-08T08:36:08.807Z,65.38
2023-02-08T08:37:10.871Z,65.34
2023-02-08T08:38:12.795Z,65.39
2023-02-08T08:39:14.811Z,65.31
2023-02-08T08:40:16.647Z,65.13
2023-02-08T08:41:19.077Z,65.13
2023-02-08T08:42:21.535Z,65.92
2023-02-08T08:43:23.502Z,66.37
2023-02-08T08:44:25.543Z,66.01
2023-02-08T08:45:27.582Z,66.00
2023-02-08T08:46:29.554Z,65.59
2023-02-08T08:47:31.673Z,65.71
2023-02-08T08:48:34.450Z,65.96
2023-02-08T08:49:36.296Z,66.12
2023-02-08T08:50:39.584Z,65.66
2023-02-08T08:51:41.890Z,65.44
2023-02-08T08:52:43.810Z,65.05
2023-02-08T08:53:45.655Z,65.70
2023-02-08T08:54:47.546Z,64.74
2023-02-08T08:55:49.423Z,65.03
2023-02-08T08:56:51.261Z,66.06
2023-02-08T08:57:53.954Z,66.03
2023-02-08T08:58:55.870Z,65.25
2023-02-08T08:59:57.730Z,65.42
2023-02-08T09:01:00.629Z,65.18
2023-02-08T09:02:02.821Z,64.97
2023-02-08T09:03:04.773Z,65.03
2023-02-08T09:04:06.749Z,64.56
2023-02-08T09:05:08.870Z,65.11
2023-02-08T09:06:11.363Z,64.85
2023-02-08T09:07:13.216Z,65.17
2023-02-08T09:08:15.145Z,64.50
2023-02-08T09:09:17.619Z,64.59
2023-02-08T09:10:19.879Z,65.32
2023-02-08T09:11:21.732Z,64.55
2023-02-08T09:12:23.676Z,64.08
2023-02-08T09:13:25.659Z,63.98
2023-02-08T09:14:27.847Z,62.90
2023-02-08T09:15:29.648Z,63.62
2023-02-08T09:16:31.787Z,63.47
2023-02-08T09:17:33.721Z,63.90
2023-02-08T09:18:35.569Z,63.09
2023-02-08T09:19:37.529Z,62.96
2023-02-08T09:20:39.695Z,62.90
2023-02-08T09:21:41.645Z,63.53
2023-02-08T09:22:43.573Z,62.71
2023-02-08T09:23:47.648Z,63.53
2023-02-08T09:24:49.634Z,63.13
2023-02-08T09:25:51.408Z,61.63
2023-02-08T09:26:53.319Z,61.37
2023-02-08T09:27:55.220Z,61.80
2023-02-08T09:28:57.241Z,62.09
2023-02-08T09:29:59.197Z,60.30
2023-02-08T09:31:08.140Z,60.95
2023-02-08T09:32:10.602Z,60.77
2023-02-08T09:33:12.588Z,60.00
2023-02-08T09:34:14.485Z,58.75
2023-02-08T09:35:16.493Z,59.91
2023-02-08T09:36:18.602Z,59.63
2023-02-08T09:37:20.585Z,60.42
2023-02-08T09:38:22.463Z,59.71
2023-02-08T09:39:28.271Z,60.44
2023-02-08T09:40:47.714Z,61.44
2023-02-08T09:41:59.937Z,59.33
2023-02-08T09:43:01.692Z,59.67
2023-02-08T09:44:06.487Z,59.40
2023-02-08T09:45:08.319Z,59.61
2023-02-08T09:46:36.712Z,60.10
2023-02-08T09:47:44.597Z,60.16
2023-02-08T09:48:46.966Z,59.42
2023-02-08T09:49:58.594Z,59.40
2023-02-08T09:51:03.524Z,57.13
2023-02-08T09:52:16.669Z,58.78
2023-02-08T09:53:25.875Z,57.70
2023-02-08T09:54:33.606Z,58.42
2023-02-08T09:55:38.121Z,57.44
2023-02-08T09:56:41.362Z,58.34
2023-02-08T09:57:45.553Z,58.16
2023-02-08T09:58:50.280Z,58.12
2023-02-08T09:59:57.673Z,58.49
2023-02-08T10:01:00.036Z,59.88
2023-02-08T10:02:04.646Z,60.39
2023-02-08T10:03:09.718Z,59.20
2023-02-08T10:04:25.182Z,58.58
2023-02-08T10:05:27.655Z,58.44
2023-02-08T10:06:30.420Z,58.67
2023-02-08T10:07:33.404Z,58.12
2023-02-08T10:08:36.161Z,58.99
2023-02-08T10:09:38.155Z,58.18
2023-02-08T10:10:51.980Z,56.88
2023-02-08T10:12:05.005Z,58.29
2023-02-08T10:13:09.704Z,57.85
2023-02-08T10:14:30.321Z,57.90
2023-02-08T10:15:35.147Z,55.21
2023-02-08T10:16:52.268Z,56.68
2023-02-08T10:18:19.202Z,56.77
2023-02-08T10:19:37.980Z,57.00
2023-02-08T10:20:55.103Z,57.51
2023-02-08T10:22:04.692Z,56.01
2023-02-08T10:23:06.502Z,56.80
2023-02-08T10:24:20.412Z,56.34
2023-02-08T10:25:25.303Z,55.95
2023-02-08T10:26:53.471Z,55.70
2023-02-08T10:28:01.439Z,54.17
2023-02-08T10:29:39.015Z,54.66
2023-02-08T10:31:13.283Z,55.23
2023-02-08T10:32:35.504Z,55.19
2023-02-08T10:33:42.343Z,54.14
2023-02-08T10:34:44.870Z,54.42
2023-02-08T10:35:48.778Z,55.16
2023-02-08T10:36:50.741Z,55.50
2023-02-08T10:37:53.154Z,54.26
2023-02-08T10:38:55.677Z,53.96
2023-02-08T10:39:59.056Z,54.60
2023-02-08T10:41:02.263Z,55.24
2023-02-08T10:42:04.958Z,55.58
2023-02-08T10:43:12.513Z,55.02
2023-02-08T10:44:20.032Z,55.17
2023-02-08T10:45:27.916Z,56.18
2023-02-08T10:46:43.257Z,55.52
2023-02-08T10:47:45.253Z,55.50
2023-02-08T10:48:54.685Z,55.03
2023-02-08T10:50:05.110Z,55.10
2023-02-08T10:51:09.802Z,55.08
2023-02-08T10:52:11.795Z,54.80
2023-02-08T10:53:17.028Z,54.73
2023-02-08T10:54:18.941Z,54.24
2023-02-08T10:55:21.563Z,54.74
2023-02-08T10:56:41.410Z,53.84
2023-02-08T10:57:44.387Z,53.73
2023-02-08T10:58:46.259Z,54.38
2023-02-08T10:59:49.824Z,56.41
2023-02-08T11:00:54.507Z,55.97
2023-02-08T11:01:56.868Z,55.20
2023-02-08T11:03:01.301Z,53.97
2023-02-08T11:04:08.170Z,55.04
2023-02-08T11:05:10.025Z,54.57
2023-02-08T11:06:32.094Z,52.67
2023-02-08T11:07:36.488Z,53.71
2023-02-08T11:08:53.937Z,53.83
2023-02-08T11:10:13.269Z,51.72
2023-02-08T11:11:15.653Z,52.74
2023-02-08T11:12:19.811Z,53.80
2023-02-08T11:13:26.961Z,53.57
2023-02-08T11:14:46.261Z,52.99
2023-02-08T11:15:53.016Z,54.02
2023-02-08T11:16:56.833Z,54.20
2023-02-08T11:18:00.446Z,53.88
2023-02-08T11:19:03.328Z,52.87
2023-02-08T11:20:05.332Z,51.57
2023-02-08T11:21:11.030Z,51.55
2023-02-08T11:22:17.401Z,53.59
2023-02-08T11:23:28.521Z,54.07
2023-02-08T11:24:43.546Z,52.19
2023-02-08T11:25:46.003Z,52.83
2023-02-08T11:26:49.244Z,51.65
2023-02-08T11:27:51.051Z,52.69
2023-02-08T11:29:12.659Z,53.42
2023-02-08T11:30:14.508Z,52.77
2023-02-08T11:31:18.807Z,52.23
2023-02-08T11:32:20.895Z,51.87
2023-02-08T11:33:23.876Z,50.00
2023-02-08T11:34:27.144Z,50.62
2023-02-08T11:35:33.982Z,50.08
2023-02-08T11:36:36.729Z,49.78
2023-02-08T11:37:38.616Z,48.33
2023-02-08T11:38:42.457Z,49.72
2023-02-08T11:39:50.026Z,49.34
2023-02-08T11:40:53.746Z,49.85
2023-02-08T11:42:00.906Z,49.45
2023-02-08T11:43:03.319Z,48.69
2023-02-08T11:44:07.500Z,47.99
2023-02-08T11:45:19.263Z,48.32
2023-02-08T11:46:23.602Z,49.71
2023-02-08T11:47:31.744Z,49.31
2023-02-08T11:48:45.003Z,48.58
2023-02-08T11:49:52.627Z,47.36
2023-02-08T11:50:57.741Z,49.23
2023-02-08T11:51:59.676Z,47.73
2023-02-08T11:53:04.097Z,48.00
2023-02-08T11:54:06.151Z,47.74
2023-02-08T11:55:24.291Z,47.77
2023-02-08T11:56:30.095Z,47.10
2023-02-08T11:57:33.155Z,46.36
2023-02-08T11:58:35.085Z,42.94
2023-02-08T11:59:36.950Z,43.98
2023-02-08T12:00:39.686Z,43.02
2023-02-08T12:01:42.845Z,44.23
2023-02-08T12:02:46.736Z,42.79
2023-02-08T12:03:50.867Z,42.92
2023-02-08T12:04:52.802Z,40.22
2023-02-08T12:06:03.456Z,40.72
2023-02-08T12:07:17.728Z,41.27
2023-02-08T12:08:29.632Z,39.92
2023-02-08T12:09:43.648Z,41.23
2023-02-08T12:10:48.135Z,41.21
2023-02-08T12:12:05.870Z,40.32
2023-02-08T12:13:21.933Z,39.09
2023-02-08T12:14:37.659Z,41.74
2023-02-08T12:15:51.373Z,39.77
2023-02-08T12:17:05.392Z,40.30
2023-02-08T12:18:16.238Z,41.22
2023-02-08T12:19:37.023Z,40.36
2023-02-08T12:20:42.763Z,40.85
2023-02-08T12:21:46.422Z,38.70
2023-02-08T12:23:14.367Z,38.35
2023-02-08T12:24:34.675Z,38.89
2023-02-08T12:26:05.869Z,38.73
2023-02-08T12:27:07.695Z,37.54
2023-02-08T12:28:18.548Z,38.50
2023-02-08T12:29:47.475Z,39.43
2023-02-08T12:30:53.224Z,39.36
2023-02-08T12:32:23.271Z,38.85
2023-02-08T12:33:40.262Z,39.13
2023-02-08T12:34:48.547Z,38.66
2023-02-08T12:36:03.221Z,37.63
2023-02-08T12:37:32.151Z,37.71
2023-02-08T12:39:19.118Z,36.54
2023-02-08T12:40:40.356Z,40.29
2023-02-08T12:41:42.209Z,38.04
2023-02-08T12:42:56.592Z,37.49
2023-02-08T12:44:13.730Z,36.54
2023-02-08T12:45:32.113Z,37.64
2023-02-08T12:46:43.110Z,39.04
2023-02-08T12:48:03.024Z,37.29
2023-02-08T12:49:18.957Z,36.60
2023-02-08T12:50:43.387Z,37.86
2023-02-08T12:51:54.207Z,38.10
2023-02-08T12:53:31.644Z,37.17
2023-02-08T12:54:39.702Z,36.78
2023-02-08T12:55:43.193Z,36.82
2023-02-08T12:57:01.590Z,38.71
2023-02-08T12:58:16.276Z,38.01
2023-02-08T12:59:31.515Z,37.58
2023-02-08T13:00:35.681Z,38.71
2023-02-08T13:01:41.673Z,37.32
2023-02-08T13:02:59.147Z,37.39
2023-02-08T13:04:04.451Z,38.19
2023-02-08T13:05:07.750Z,37.32
2023-02-08T13:06:14.615Z,38.23
2023-02-08T13:07:18.826Z,38.58
2023-02-08T13:08:26.590Z,38.17
2023-02-08T13:09:35.744Z,38.03
2023-02-08T13:10:40.827Z,37.42
2023-02-08T13:11:58.422Z,36.27
2023-02-08T13:13:05.170Z,37.62
2023-02-08T13:14:20.432Z,39.58
2023-02-08T13:15:40.010Z,37.94
2023-02-08T13:16:45.256Z,38.63
2023-02-08T13:17:47.122Z,37.28
2023-02-08T13:18:53.848Z,37.40
2023-02-08T13:20:01.584Z,39.02
2023-02-08T13:21:07.048Z,37.56
2023-02-08T13:22:11.293Z,36.82
2023-02-08T13:23:43.502Z,36.24
2023-02-08T13:25:06.336Z,36.67
2023-02-08T13:26:15.733Z,37.39
2023-02-08T13:27:18.899Z,38.02
2023-02-08T13:28:24.880Z,39.01
2023-02-08T13:29:28.319Z,36.68
2023-02-08T13:30:31.866Z,36.93
2023-02-08T13:31:41.679Z,38.12
2023-02-08T13:32:45.908Z,37.40
2023-02-08T13:34:00.809Z,38.17
2023-02-08T13:35:11.774Z,38.28
2023-02-08T13:36:21.455Z,37.81
2023-02-08T13:37:26.733Z,36.82
2023-02-08T13:38:30.471Z,37.06
2023-02-08T13:39:32.348Z,38.19
2023-02-08T13:40:38.021Z,38.29
2023-02-08T13:41:51.126Z,38.57
2023-02-08T13:42:57.442Z,38.23
2023-02-08T13:44:01.830Z,39.01
2023-02-08T13:45:05.247Z,39.25
2023-02-08T13:46:07.850Z,37.96
2023-02-08T13:47:23.621Z,38.98
2023-02-08T13:48:27.256Z,38.91
2023-02-08T13:49:47.778Z,38.03
2023-02-08T13:50:52.138Z,38.00
2023-02-08T13:51:54.825Z,38.18
2023-02-08T13:52:56.680Z,39.23
2023-02-08T13:53:58.622Z,39.12
2023-02-08T13:55:18.886Z,38.27
2023-02-08T13:56:38.318Z,37.75
2023-02-08T13:57:54.095Z,39.26
2023-02-08T13:59:01.529Z,37.99
2023-02-08T14:00:22.189Z,37.91